Hauptseite
METAR-TAF:

METAR-TAF

Flughäfen :

Humberside Airport

Humberside, England

Breite: 53-35N, Länge: 000-21W, Höhe: 31 m

Beobachtung

Neuester Wetterbericht von vor 48 Minuten, um 02:20 UTC
Wind 5 kt aus West/Südwest
Temperatur 9°C
Luftfeuchtigkeit 87%
Luftdruck 1034 hPa
Sichtweite 10 km oder mehr

METAR: EGNJ 250220Z AUTO 25005KT 9999 NCD 09/07 Q1034

Zeit: 04:08 (03:08 UTC)

Prognose

Neuester Wetterbericht von vor 1 Stunde und 14 Minuten, um 01:54 UTC
Gültige Prognose vom 25 um 03 UTC bis 25 um 12 UTC
Wind 6 kt aus West
Sichtweite 10 km oder mehr
keine Wolken unter 1500 m und keine Kumulonimbus oder Gewitterwolken

TAF: EGNJ 250154Z 2503/2512 26006KT CAVOK

Wetterbeobachtungen und Prognosen von mehr als 4000 Flughäfen (METAR und TAF Bericht).

Die verfügbaren Stationen werden durch gelbe und rote Markierungen auf der Karte dargestellt.

Führen Sie die Maus auf sie, um den Namen der Station zu sehen.

Darauf klicken, um die Beobachtung von Wetterbeobachtungen und Prognosen zu sehen.

Um die Karte zu ändern : klicken Sie auf den grünen Tasten mit einem schwarzen Kreuz Zum Vergrößern, auf den grünen Button mit einem Gedankenstrich zu verkleinern, oder auf die grünen Pfeile für benachbarte Karten.


METAR-TAF: